createdAt,value
2022-11-30T00:05:46.626Z,25.33
2022-11-30T00:11:40.223Z,27.77
2022-11-30T00:17:35.244Z,27.00
2022-11-30T00:23:28.931Z,29.13
2022-11-30T00:29:22.549Z,27.80
2022-11-30T00:35:18.502Z,28.27
2022-11-30T00:41:12.204Z,28.50
2022-11-30T00:47:06.024Z,29.97
2022-11-30T00:53:00.887Z,30.73
2022-11-30T00:58:54.429Z,28.40
2022-11-30T01:04:48.273Z,30.43
2022-11-30T01:10:44.862Z,29.77
2022-11-30T01:16:38.445Z,30.70
2022-11-30T01:22:31.947Z,29.60
2022-11-30T01:28:28.000Z,26.10
2022-11-30T01:34:22.686Z,26.50
2022-11-30T01:40:16.254Z,26.23
2022-11-30T01:46:30.365Z,28.37
2022-11-30T01:52:27.999Z,29.10
2022-11-30T01:58:28.144Z,30.03
2022-11-30T02:04:26.246Z,30.97
2022-11-30T02:10:24.062Z,27.37
2022-11-30T02:16:25.494Z,30.23
2022-11-30T02:22:35.671Z,31.93
2022-11-30T02:28:47.425Z,29.83
2022-11-30T02:34:43.680Z,32.77
2022-11-30T02:40:37.256Z,30.03
2022-11-30T02:46:42.316Z,32.63
2022-11-30T02:52:36.450Z,33.47
2022-11-30T02:58:30.135Z,30.50
2022-11-30T03:04:25.146Z,30.07
2022-11-30T03:10:18.423Z,30.23
2022-11-30T03:16:13.639Z,28.50
2022-11-30T03:22:08.529Z,28.67
2022-11-30T03:28:02.464Z,28.00
2022-11-30T03:33:55.938Z,26.53
2022-11-30T03:39:57.760Z,30.60
2022-11-30T03:45:51.675Z,27.17
2022-11-30T03:51:45.217Z,29.63
2022-11-30T03:57:40.041Z,29.60
2022-11-30T04:03:33.933Z,28.77
2022-11-30T04:09:27.471Z,33.03
2022-11-30T04:15:22.416Z,29.30
2022-11-30T04:21:15.899Z,27.27
2022-11-30T04:27:09.362Z,30.47
2022-11-30T04:33:04.795Z,27.40
2022-11-30T04:38:58.256Z,29.40
2022-11-30T04:44:51.718Z,29.10
2022-11-30T04:50:46.785Z,27.37
2022-11-30T04:56:40.457Z,24.00
2022-11-30T05:02:33.991Z,28.77
2022-11-30T05:08:29.091Z,26.20
2022-11-30T05:14:23.775Z,29.47
2022-11-30T05:20:21.462Z,26.13
2022-11-30T05:26:16.162Z,26.60
2022-11-30T05:32:09.659Z,26.53
2022-11-30T05:38:03.310Z,25.93
2022-11-30T05:43:58.254Z,25.17
2022-11-30T05:49:51.273Z,27.13
2022-11-30T05:55:44.728Z,25.80
2022-11-30T06:01:39.229Z,25.97
2022-11-30T06:07:32.910Z,24.87
2022-11-30T06:13:28.963Z,21.13
2022-11-30T06:19:23.937Z,22.27
2022-11-30T06:25:17.577Z,25.33
2022-11-30T06:31:11.293Z,23.70
2022-11-30T06:37:06.376Z,23.67
2022-11-30T06:42:59.844Z,23.10
2022-11-30T06:48:53.315Z,23.57
2022-11-30T06:54:48.312Z,24.17
2022-11-30T07:00:42.711Z,24.87
2022-11-30T07:06:36.645Z,22.07
2022-11-30T07:12:31.084Z,21.63
2022-11-30T07:18:28.626Z,20.67
2022-11-30T07:24:42.988Z,22.50
2022-11-30T07:30:37.341Z,20.97
2022-11-30T07:36:31.985Z,20.57
2022-11-30T07:42:25.492Z,20.70
2022-11-30T07:48:21.460Z,17.70
2022-11-30T07:54:15.707Z,16.13
2022-11-30T08:00:11.796Z,18.07
2022-11-30T08:06:12.950Z,17.30
2022-11-30T08:12:06.851Z,17.00
2022-11-30T08:18:05.727Z,15.80
2022-11-30T08:24:00.706Z,16.53
2022-11-30T08:29:54.434Z,17.47
2022-11-30T08:35:47.480Z,15.80
2022-11-30T08:41:42.584Z,14.90
2022-11-30T08:47:36.075Z,15.00
2022-11-30T08:53:29.629Z,14.73
2022-11-30T08:59:24.597Z,14.20
2022-11-30T09:05:18.240Z,16.00
2022-11-30T09:11:12.825Z,16.07
2022-11-30T09:17:07.668Z,14.70
2022-11-30T09:23:01.160Z,16.00
2022-11-30T09:28:55.517Z,17.20
2022-11-30T09:34:51.032Z,15.13
2022-11-30T09:40:44.977Z,15.73
2022-11-30T09:46:42.683Z,15.30
2022-11-30T09:52:42.494Z,16.30
2022-11-30T09:58:46.235Z,14.50
2022-11-30T10:04:39.728Z,16.07
2022-11-30T10:10:40.906Z,17.63
2022-11-30T10:16:45.882Z,17.57
2022-11-30T10:22:57.332Z,17.20
2022-11-30T10:28:53.886Z,16.10
2022-11-30T10:34:50.971Z,18.50
2022-11-30T10:40:51.751Z,18.47
2022-11-30T10:46:56.576Z,20.00
2022-11-30T10:52:53.855Z,19.00
2022-11-30T10:58:57.816Z,19.60
2022-11-30T11:05:19.020Z,19.03
2022-11-30T11:11:34.174Z,19.50
2022-11-30T11:17:29.014Z,23.53
2022-11-30T11:23:35.959Z,21.50
2022-11-30T11:29:32.771Z,22.80
2022-11-30T11:35:42.848Z,22.23
2022-11-30T11:41:39.998Z,21.30
2022-11-30T11:47:40.844Z,21.67
2022-11-30T11:53:50.096Z,23.30
2022-11-30T11:59:55.870Z,21.83
2022-11-30T12:05:54.613Z,22.50
2022-11-30T12:11:50.238Z,22.47
2022-11-30T12:17:53.375Z,25.03
2022-11-30T12:24:00.868Z,27.50
2022-11-30T12:30:03.125Z,26.17
2022-11-30T12:36:03.084Z,26.30
2022-11-30T12:42:01.550Z,25.80
2022-11-30T12:48:01.883Z,24.00
2022-11-30T12:54:07.236Z,27.00
2022-11-30T13:00:08.463Z,26.60
2022-11-30T13:06:06.464Z,27.70
2022-11-30T13:12:06.757Z,28.40
2022-11-30T13:18:02.183Z,25.47
2022-11-30T13:24:05.581Z,26.67
2022-11-30T13:30:18.316Z,28.77
2022-11-30T13:36:26.338Z,26.73
2022-11-30T13:42:34.277Z,29.53
2022-11-30T13:48:35.286Z,27.60
2022-11-30T13:54:43.382Z,29.57
2022-11-30T14:00:49.472Z,29.10
2022-11-30T14:06:49.896Z,28.03
2022-11-30T14:13:00.034Z,31.67
2022-11-30T14:18:54.003Z,27.67
2022-11-30T14:24:50.741Z,30.20
2022-11-30T14:30:45.639Z,32.33
2022-11-30T14:36:44.352Z,27.70
2022-11-30T14:42:39.206Z,31.40
2022-11-30T14:48:32.732Z,31.53
2022-11-30T14:54:44.229Z,31.67
2022-11-30T15:00:41.377Z,30.47
2022-11-30T15:06:35.549Z,31.73
2022-11-30T15:12:29.067Z,29.07
2022-11-30T15:18:24.822Z,30.27
2022-11-30T15:24:18.676Z,28.93
2022-11-30T15:30:17.334Z,29.10
2022-11-30T15:36:27.924Z,28.37
2022-11-30T15:42:30.292Z,29.17
2022-11-30T15:48:29.941Z,30.37
2022-11-30T15:54:46.257Z,27.87
2022-11-30T16:00:40.354Z,30.00
2022-11-30T16:06:36.919Z,30.30
2022-11-30T16:12:32.040Z,30.10
2022-11-30T16:18:28.065Z,29.73
2022-11-30T16:24:22.793Z,30.33
2022-11-30T16:30:20.224Z,34.33
2022-11-30T16:36:17.562Z,31.10
2022-11-30T16:42:13.116Z,34.13
2022-11-30T16:48:09.047Z,29.40
2022-11-30T16:54:02.941Z,34.17
2022-11-30T16:59:55.964Z,33.13
2022-11-30T17:05:51.096Z,31.80
2022-11-30T17:11:45.480Z,36.50
2022-11-30T17:17:38.585Z,34.03
2022-11-30T17:23:33.677Z,34.00
2022-11-30T17:29:26.885Z,34.90
2022-11-30T17:35:20.220Z,32.40
2022-11-30T17:41:19.178Z,31.77
2022-11-30T17:47:13.707Z,32.23
2022-11-30T17:53:06.880Z,32.50
2022-11-30T17:59:06.416Z,35.17
2022-11-30T18:04:59.558Z,34.40
2022-11-30T18:10:53.149Z,36.70
2022-11-30T18:16:54.656Z,33.17
2022-11-30T18:22:48.278Z,33.00
2022-11-30T18:28:41.989Z,30.90
2022-11-30T18:34:36.481Z,33.30
2022-11-30T18:40:30.070Z,36.00
2022-11-30T18:46:23.355Z,34.40
2022-11-30T18:52:18.461Z,34.37
2022-11-30T18:58:11.466Z,34.33
2022-11-30T19:04:06.808Z,32.53
2022-11-30T19:10:01.748Z,32.53
2022-11-30T19:15:55.225Z,37.57
2022-11-30T19:21:48.347Z,36.37
2022-11-30T19:27:43.185Z,36.30
2022-11-30T19:33:41.720Z,33.20
2022-11-30T19:39:35.199Z,32.30
2022-11-30T19:45:30.006Z,32.87
2022-11-30T19:51:23.446Z,35.20
2022-11-30T19:57:16.881Z,32.93
2022-11-30T20:03:11.749Z,30.33
2022-11-30T20:09:07.358Z,32.63
2022-11-30T20:15:00.897Z,34.10
2022-11-30T20:20:56.521Z,33.43
2022-11-30T20:26:49.589Z,32.97
2022-11-30T20:32:43.698Z,33.10
2022-11-30T20:38:39.285Z,31.10
2022-11-30T20:44:32.806Z,31.67
2022-11-30T20:50:26.279Z,31.73
2022-11-30T20:56:22.637Z,33.20
2022-11-30T21:02:16.408Z,31.90
2022-11-30T21:08:09.914Z,31.47
2022-11-30T21:14:04.930Z,30.77
2022-11-30T21:19:58.442Z,30.50
2022-11-30T21:25:51.954Z,32.90
2022-11-30T21:31:47.053Z,30.27
2022-11-30T21:37:40.561Z,32.70
2022-11-30T21:43:35.804Z,28.20
2022-11-30T21:49:30.916Z,30.87
2022-11-30T21:55:24.314Z,33.17
2022-11-30T22:01:20.744Z,29.70
2022-11-30T22:07:15.636Z,31.50
2022-11-30T22:13:09.111Z,31.23
2022-11-30T22:19:03.009Z,30.57
2022-11-30T22:24:57.871Z,31.27
2022-11-30T22:30:51.390Z,29.97
2022-11-30T22:36:45.999Z,31.53
2022-11-30T22:42:40.776Z,32.00
2022-11-30T22:48:34.808Z,30.70
2022-11-30T22:54:28.472Z,33.17
2022-11-30T23:00:23.433Z,30.57
2022-11-30T23:06:18.769Z,28.40
2022-11-30T23:12:20.472Z,31.63
2022-11-30T23:18:28.072Z,31.57
2022-11-30T23:24:21.956Z,31.17
2022-11-30T23:30:15.765Z,28.33
2022-11-30T23:36:11.440Z,28.97
2022-11-30T23:42:04.975Z,32.10
2022-11-30T23:47:58.413Z,30.23
2022-11-30T23:53:53.583Z,30.67
2022-11-30T23:59:47.352Z,30.93
